<?xml version="1.0" encoding="UTF-8" standalone="no" ?>
<gpx xmlns="http://www.topografix.com/GPX/1/1" xmlns:xsi="http://www.w3.org/2001/XMLSchema-instance" xsi:schemaLocation="http://www.topografix.com/GPX/1/1 http://www.topografix.com/GPX/1/1/gpx.xsd" version="1.1" creator="VisuGPX - https://www.visugpx.com">
  <metadata>
    <name>Lac Fourchu</name>
    <desc><![CDATA[Ballade rapide vers le plateau des lacs, avec notamment le plus grand, le lac fourchu]]></desc>
  </metadata>
  <trk>
    <name><![CDATA[ACTIVE LOG: 20 JUL 2013 10:00]]></name>
    <trkseg>
      <trkpt lat="45.05294" lon="5.89968">
        <ele>1656.01</ele>
        <time>2013-07-20T08:03:14Z</time>
      </trkpt>
      <trkpt lat="45.05283" lon="5.89986">
        <ele>1656.97</ele>
        <time>2013-07-20T08:03:36Z</time>
      </trkpt>
      <trkpt lat="45.05283" lon="5.89987">
        <ele>1656.97</ele>
        <time>2013-07-20T08:03:38Z</time>
      </trkpt>
      <trkpt lat="45.05275" lon="5.9">
        <ele>1654.57</ele>
        <time>2013-07-20T08:03:53Z</time>
      </trkpt>
      <trkpt lat="45.05271" lon="5.90003">
        <ele>1654.57</ele>
        <time>2013-07-20T08:03:57Z</time>
      </trkpt>
      <trkpt lat="45.0526" lon="5.9002">
        <ele>1656.01</ele>
        <time>2013-07-20T08:04:13Z</time>
      </trkpt>
      <trkpt lat="45.05255" lon="5.90035">
        <ele>1657.45</ele>
        <time>2013-07-20T08:04:27Z</time>
      </trkpt>
      <trkpt lat="45.05254" lon="5.90039">
        <ele>1656.01</ele>
        <time>2013-07-20T08:04:31Z</time>
      </trkpt>
      <trkpt lat="45.05245" lon="5.90054">
        <ele>1651.68</ele>
        <time>2013-07-20T08:04:46Z</time>
      </trkpt>
      <trkpt lat="45.05233" lon="5.90062">
        <ele>1651.68</ele>
        <time>2013-07-20T08:05:00Z</time>
      </trkpt>
      <trkpt lat="45.05222" lon="5.90068">
        <ele>1653.6</ele>
        <time>2013-07-20T08:05:13Z</time>
      </trkpt>
      <trkpt lat="45.05211" lon="5.90077">
        <ele>1652.64</ele>
        <time>2013-07-20T08:05:30Z</time>
      </trkpt>
      <trkpt lat="45.05205" lon="5.90085">
        <ele>1655.05</ele>
        <time>2013-07-20T08:05:44Z</time>
      </trkpt>
      <trkpt lat="45.05204" lon="5.90085">
        <ele>1654.57</ele>
        <time>2013-07-20T08:06:32Z</time>
      </trkpt>
      <trkpt lat="45.05195" lon="5.901">
        <ele>1658.89</ele>
        <time>2013-07-20T08:06:49Z</time>
      </trkpt>
      <trkpt lat="45.0519" lon="5.90108">
        <ele>1658.89</ele>
        <time>2013-07-20T08:07:02Z</time>
      </trkpt>
      <trkpt lat="45.05189" lon="5.90114">
        <ele>1658.41</ele>
        <time>2013-07-20T08:07:13Z</time>
      </trkpt>
      <trkpt lat="45.05191" lon="5.90128">
        <ele>1656.49</ele>
        <time>2013-07-20T08:07:32Z</time>
      </trkpt>
      <trkpt lat="45.05196" lon="5.9014">
        <ele>1660.33</ele>
        <time>2013-07-20T08:07:48Z</time>
      </trkpt>
      <trkpt lat="45.05198" lon="5.90154">
        <ele>1661.78</ele>
        <time>2013-07-20T08:08:04Z</time>
      </trkpt>
      <trkpt lat="45.0519" lon="5.90167">
        <ele>1661.3</ele>
        <time>2013-07-20T08:08:21Z</time>
      </trkpt>
      <trkpt lat="45.05185" lon="5.90179">
        <ele>1660.81</ele>
        <time>2013-07-20T08:08:38Z</time>
      </trkpt>
      <trkpt lat="45.05177" lon="5.90189">
        <ele>1659.37</ele>
        <time>2013-07-20T08:08:52Z</time>
      </trkpt>
      <trkpt lat="45.05169" lon="5.90193">
        <ele>1662.26</ele>
        <time>2013-07-20T08:09:05Z</time>
      </trkpt>
      <trkpt lat="45.05163" lon="5.90198">
        <ele>1665.62</ele>
        <time>2013-07-20T08:09:13Z</time>
      </trkpt>
      <trkpt lat="45.05161" lon="5.90209">
        <ele>1665.62</ele>
        <time>2013-07-20T08:09:27Z</time>
      </trkpt>
      <trkpt lat="45.05158" lon="5.90225">
        <ele>1665.62</ele>
        <time>2013-07-20T08:09:43Z</time>
      </trkpt>
      <trkpt lat="45.05158" lon="5.90227">
        <ele>1666.1</ele>
        <time>2013-07-20T08:09:46Z</time>
      </trkpt>
      <trkpt lat="45.05156" lon="5.90205">
        <ele>1663.22</ele>
        <time>2013-07-20T08:10:01Z</time>
      </trkpt>
      <trkpt lat="45.05157" lon="5.90204">
        <ele>1662.26</ele>
        <time>2013-07-20T08:10:14Z</time>
      </trkpt>
      <trkpt lat="45.05161" lon="5.90202">
        <ele>1662.26</ele>
        <time>2013-07-20T08:14:25Z</time>
      </trkpt>
      <trkpt lat="45.05163" lon="5.90205">
        <ele>1663.7</ele>
        <time>2013-07-20T08:14:37Z</time>
      </trkpt>
      <trkpt lat="45.05161" lon="5.90219">
        <ele>1663.7</ele>
        <time>2013-07-20T08:14:45Z</time>
      </trkpt>
      <trkpt lat="45.05157" lon="5.90249">
        <ele>1663.7</ele>
        <time>2013-07-20T08:15:07Z</time>
      </trkpt>
      <trkpt lat="45.05162" lon="5.90272">
        <ele>1667.06</ele>
        <time>2013-07-20T08:15:24Z</time>
      </trkpt>
      <trkpt lat="45.05165" lon="5.90285">
        <ele>1668.02</ele>
        <time>2013-07-20T08:15:33Z</time>
      </trkpt>
      <trkpt lat="45.05171" lon="5.90313">
        <ele>1666.58</ele>
        <time>2013-07-20T08:15:52Z</time>
      </trkpt>
      <trkpt lat="45.05176" lon="5.90356">
        <ele>1668.02</ele>
        <time>2013-07-20T08:16:18Z</time>
      </trkpt>
      <trkpt lat="45.05168" lon="5.90396">
        <ele>1668.99</ele>
        <time>2013-07-20T08:16:43Z</time>
      </trkpt>
      <trkpt lat="45.05159" lon="5.90432">
        <ele>1671.87</ele>
        <time>2013-07-20T08:17:08Z</time>
      </trkpt>
      <trkpt lat="45.05149" lon="5.90473">
        <ele>1674.75</ele>
        <time>2013-07-20T08:17:38Z</time>
      </trkpt>
      <trkpt lat="45.05143" lon="5.90515">
        <ele>1677.16</ele>
        <time>2013-07-20T08:18:09Z</time>
      </trkpt>
      <trkpt lat="45.05137" lon="5.90553">
        <ele>1678.6</ele>
        <time>2013-07-20T08:18:36Z</time>
      </trkpt>
      <trkpt lat="45.05128" lon="5.90579">
        <ele>1680.04</ele>
        <time>2013-07-20T08:18:58Z</time>
      </trkpt>
      <trkpt lat="45.05125" lon="5.90606">
        <ele>1684.37</ele>
        <time>2013-07-20T08:19:19Z</time>
      </trkpt>
      <trkpt lat="45.05129" lon="5.90625">
        <ele>1689.65</ele>
        <time>2013-07-20T08:19:35Z</time>
      </trkpt>
      <trkpt lat="45.05127" lon="5.90648">
        <ele>1692.06</ele>
        <time>2013-07-20T08:19:54Z</time>
      </trkpt>
      <trkpt lat="45.0513" lon="5.90671">
        <ele>1692.06</ele>
        <time>2013-07-20T08:20:16Z</time>
      </trkpt>
      <trkpt lat="45.05134" lon="5.90698">
        <ele>1693.02</ele>
        <time>2013-07-20T08:20:44Z</time>
      </trkpt>
      <trkpt lat="45.05132" lon="5.90722">
        <ele>1693.02</ele>
        <time>2013-07-20T08:21:03Z</time>
      </trkpt>
      <trkpt lat="45.05125" lon="5.90746">
        <ele>1693.02</ele>
        <time>2013-07-20T08:21:25Z</time>
      </trkpt>
      <trkpt lat="45.05123" lon="5.90754">
        <ele>1693.02</ele>
        <time>2013-07-20T08:21:41Z</time>
      </trkpt>
      <trkpt lat="45.05123" lon="5.90764">
        <ele>1693.98</ele>
        <time>2013-07-20T08:21:56Z</time>
      </trkpt>
      <trkpt lat="45.05119" lon="5.90776">
        <ele>1696.38</ele>
        <time>2013-07-20T08:22:10Z</time>
      </trkpt>
      <trkpt lat="45.05119" lon="5.90794">
        <ele>1702.63</ele>
        <time>2013-07-20T08:22:30Z</time>
      </trkpt>
      <trkpt lat="45.05102" lon="5.90811">
        <ele>1704.07</ele>
        <time>2013-07-20T08:22:56Z</time>
      </trkpt>
      <trkpt lat="45.05104" lon="5.9083">
        <ele>1707.92</ele>
        <time>2013-07-20T08:23:20Z</time>
      </trkpt>
      <trkpt lat="45.05102" lon="5.90852">
        <ele>1709.84</ele>
        <time>2013-07-20T08:23:41Z</time>
      </trkpt>
      <trkpt lat="45.05098" lon="5.90872">
        <ele>1709.36</ele>
        <time>2013-07-20T08:24:05Z</time>
      </trkpt>
      <trkpt lat="45.05096" lon="5.90899">
        <ele>1713.21</ele>
        <time>2013-07-20T08:24:34Z</time>
      </trkpt>
      <trkpt lat="45.05088" lon="5.90926">
        <ele>1717.05</ele>
        <time>2013-07-20T08:25:03Z</time>
      </trkpt>
      <trkpt lat="45.0508" lon="5.90944">
        <ele>1719.46</ele>
        <time>2013-07-20T08:25:29Z</time>
      </trkpt>
      <trkpt lat="45.05075" lon="5.90964">
        <ele>1720.9</ele>
        <time>2013-07-20T08:25:52Z</time>
      </trkpt>
      <trkpt lat="45.05069" lon="5.90982">
        <ele>1723.3</ele>
        <time>2013-07-20T08:26:17Z</time>
      </trkpt>
      <trkpt lat="45.05069" lon="5.90992">
        <ele>1723.3</ele>
        <time>2013-07-20T08:26:28Z</time>
      </trkpt>
      <trkpt lat="45.05067" lon="5.91007">
        <ele>1722.82</ele>
        <time>2013-07-20T08:26:45Z</time>
      </trkpt>
      <trkpt lat="45.05068" lon="5.91022">
        <ele>1725.22</ele>
        <time>2013-07-20T08:27:01Z</time>
      </trkpt>
      <trkpt lat="45.05067" lon="5.91033">
        <ele>1728.11</ele>
        <time>2013-07-20T08:27:14Z</time>
      </trkpt>
      <trkpt lat="45.05067" lon="5.91034">
        <ele>1728.11</ele>
        <time>2013-07-20T08:27:15Z</time>
      </trkpt>
      <trkpt lat="45.05065" lon="5.91054">
        <ele>1726.18</ele>
        <time>2013-07-20T08:27:32Z</time>
      </trkpt>
      <trkpt lat="45.05058" lon="5.91073">
        <ele>1726.67</ele>
        <time>2013-07-20T08:27:52Z</time>
      </trkpt>
      <trkpt lat="45.05054" lon="5.91083">
        <ele>1726.18</ele>
        <time>2013-07-20T08:28:06Z</time>
      </trkpt>
      <trkpt lat="45.05043" lon="5.91097">
        <ele>1726.67</ele>
        <time>2013-07-20T08:28:27Z</time>
      </trkpt>
      <trkpt lat="45.05038" lon="5.91106">
        <ele>1728.59</ele>
        <time>2013-07-20T08:28:44Z</time>
      </trkpt>
      <trkpt lat="45.05035" lon="5.91112">
        <ele>1729.07</ele>
        <time>2013-07-20T08:28:59Z</time>
      </trkpt>
      <trkpt lat="45.05038" lon="5.91131">
        <ele>1733.39</ele>
        <time>2013-07-20T08:29:22Z</time>
      </trkpt>
      <trkpt lat="45.05038" lon="5.91141">
        <ele>1735.32</ele>
        <time>2013-07-20T08:29:34Z</time>
      </trkpt>
      <trkpt lat="45.05043" lon="5.91155">
        <ele>1737.72</ele>
        <time>2013-07-20T08:29:54Z</time>
      </trkpt>
      <trkpt lat="45.05042" lon="5.91167">
        <ele>1739.16</ele>
        <time>2013-07-20T08:30:10Z</time>
      </trkpt>
      <trkpt lat="45.05048" lon="5.91173">
        <ele>1741.57</ele>
        <time>2013-07-20T08:30:27Z</time>
      </trkpt>
      <trkpt lat="45.05053" lon="5.91177">
        <ele>1743.97</ele>
        <time>2013-07-20T08:30:41Z</time>
      </trkpt>
      <trkpt lat="45.05053" lon="5.91184">
        <ele>1744.93</ele>
        <time>2013-07-20T08:30:54Z</time>
      </trkpt>
      <trkpt lat="45.05054" lon="5.91193">
        <ele>1746.85</ele>
        <time>2013-07-20T08:31:07Z</time>
      </trkpt>
      <trkpt lat="45.05058" lon="5.91204">
        <ele>1749.74</ele>
        <time>2013-07-20T08:31:21Z</time>
      </trkpt>
      <trkpt lat="45.05058" lon="5.91214">
        <ele>1751.18</ele>
        <time>2013-07-20T08:31:35Z</time>
      </trkpt>
      <trkpt lat="45.05057" lon="5.91222">
        <ele>1752.62</ele>
        <time>2013-07-20T08:31:49Z</time>
      </trkpt>
      <trkpt lat="45.05057" lon="5.91234">
        <ele>1755.02</ele>
        <time>2013-07-20T08:32:04Z</time>
      </trkpt>
      <trkpt lat="45.0506" lon="5.9124">
        <ele>1758.39</ele>
        <time>2013-07-20T08:32:21Z</time>
      </trkpt>
      <trkpt lat="45.05062" lon="5.91254">
        <ele>1760.31</ele>
        <time>2013-07-20T08:32:43Z</time>
      </trkpt>
      <trkpt lat="45.05062" lon="5.91269">
        <ele>1762.23</ele>
        <time>2013-07-20T08:33:02Z</time>
      </trkpt>
      <trkpt lat="45.05064" lon="5.91279">
        <ele>1765.12</ele>
        <time>2013-07-20T08:33:21Z</time>
      </trkpt>
      <trkpt lat="45.05069" lon="5.91289">
        <ele>1770.41</ele>
        <time>2013-07-20T08:33:43Z</time>
      </trkpt>
      <trkpt lat="45.05073" lon="5.91303">
        <ele>1772.81</ele>
        <time>2013-07-20T08:34:03Z</time>
      </trkpt>
      <trkpt lat="45.05076" lon="5.91317">
        <ele>1775.69</ele>
        <time>2013-07-20T08:34:24Z</time>
      </trkpt>
      <trkpt lat="45.0508" lon="5.91327">
        <ele>1780.98</ele>
        <time>2013-07-20T08:34:47Z</time>
      </trkpt>
      <trkpt lat="45.05082" lon="5.91341">
        <ele>1782.42</ele>
        <time>2013-07-20T08:35:08Z</time>
      </trkpt>
      <trkpt lat="45.05088" lon="5.91347">
        <ele>1781.46</ele>
        <time>2013-07-20T08:35:26Z</time>
      </trkpt>
      <trkpt lat="45.05095" lon="5.91349">
        <ele>1780.02</ele>
        <time>2013-07-20T08:35:44Z</time>
      </trkpt>
      <trkpt lat="45.05104" lon="5.91349">
        <ele>1781.46</ele>
        <time>2013-07-20T08:36:00Z</time>
      </trkpt>
      <trkpt lat="45.05117" lon="5.91365">
        <ele>1784.34</ele>
        <time>2013-07-20T08:36:18Z</time>
      </trkpt>
      <trkpt lat="45.05121" lon="5.9137">
        <ele>1785.31</ele>
        <time>2013-07-20T08:36:27Z</time>
      </trkpt>
      <trkpt lat="45.05135" lon="5.91384">
        <ele>1787.23</ele>
        <time>2013-07-20T08:36:49Z</time>
      </trkpt>
      <trkpt lat="45.05142" lon="5.91401">
        <ele>1789.15</ele>
        <time>2013-07-20T08:37:10Z</time>
      </trkpt>
      <trkpt lat="45.05149" lon="5.91404">
        <ele>1790.11</ele>
        <time>2013-07-20T08:37:24Z</time>
      </trkpt>
      <trkpt lat="45.05152" lon="5.91416">
        <ele>1793</ele>
        <time>2013-07-20T08:37:39Z</time>
      </trkpt>
      <trkpt lat="45.05154" lon="5.91419">
        <ele>1793</ele>
        <time>2013-07-20T08:37:44Z</time>
      </trkpt>
      <trkpt lat="45.05159" lon="5.91433">
        <ele>1792.03</ele>
        <time>2013-07-20T08:37:56Z</time>
      </trkpt>
      <trkpt lat="45.05159" lon="5.91436">
        <ele>1791.55</ele>
        <time>2013-07-20T08:37:58Z</time>
      </trkpt>
      <trkpt lat="45.05158" lon="5.91453">
        <ele>1790.11</ele>
        <time>2013-07-20T08:38:11Z</time>
      </trkpt>
      <trkpt lat="45.05161" lon="5.91464">
        <ele>1792.52</ele>
        <time>2013-07-20T08:38:25Z</time>
      </trkpt>
      <trkpt lat="45.05162" lon="5.91476">
        <ele>1793.48</ele>
        <time>2013-07-20T08:38:38Z</time>
      </trkpt>
      <trkpt lat="45.05162" lon="5.91491">
        <ele>1796.36</ele>
        <time>2013-07-20T08:38:53Z</time>
      </trkpt>
      <trkpt lat="45.0516" lon="5.91501">
        <ele>1797.32</ele>
        <time>2013-07-20T08:39:06Z</time>
      </trkpt>
      <trkpt lat="45.05166" lon="5.91516">
        <ele>1800.21</ele>
        <time>2013-07-20T08:39:24Z</time>
      </trkpt>
      <trkpt lat="45.05169" lon="5.91529">
        <ele>1802.61</ele>
        <time>2013-07-20T08:39:41Z</time>
      </trkpt>
      <trkpt lat="45.05171" lon="5.91538">
        <ele>1805.97</ele>
        <time>2013-07-20T08:39:56Z</time>
      </trkpt>
      <trkpt lat="45.05176" lon="5.91548">
        <ele>1809.34</ele>
        <time>2013-07-20T08:40:12Z</time>
      </trkpt>
      <trkpt lat="45.05176" lon="5.91556">
        <ele>1811.74</ele>
        <time>2013-07-20T08:40:24Z</time>
      </trkpt>
      <trkpt lat="45.05179" lon="5.91567">
        <ele>1814.15</ele>
        <time>2013-07-20T08:40:45Z</time>
      </trkpt>
      <trkpt lat="45.05181" lon="5.9158">
        <ele>1816.07</ele>
        <time>2013-07-20T08:41:05Z</time>
      </trkpt>
      <trkpt lat="45.05184" lon="5.91596">
        <ele>1821.35</ele>
        <time>2013-07-20T08:41:29Z</time>
      </trkpt>
      <trkpt lat="45.05184" lon="5.91616">
        <ele>1826.64</ele>
        <time>2013-07-20T08:41:58Z</time>
      </trkpt>
      <trkpt lat="45.05186" lon="5.91628">
        <ele>1829.05</ele>
        <time>2013-07-20T08:42:20Z</time>
      </trkpt>
      <trkpt lat="45.0519" lon="5.91645">
        <ele>1832.41</ele>
        <time>2013-07-20T08:42:45Z</time>
      </trkpt>
      <trkpt lat="45.05189" lon="5.91649">
        <ele>1833.37</ele>
        <time>2013-07-20T08:43:02Z</time>
      </trkpt>
      <trkpt lat="45.0519" lon="5.91663">
        <ele>1834.81</ele>
        <time>2013-07-20T08:43:32Z</time>
      </trkpt>
      <trkpt lat="45.05187" lon="5.91681">
        <ele>1838.66</ele>
        <time>2013-07-20T08:43:56Z</time>
      </trkpt>
      <trkpt lat="45.05186" lon="5.91693">
        <ele>1841.06</ele>
        <time>2013-07-20T08:44:18Z</time>
      </trkpt>
      <trkpt lat="45.0519" lon="5.91709">
        <ele>1844.43</ele>
        <time>2013-07-20T08:44:39Z</time>
      </trkpt>
      <trkpt lat="45.05192" lon="5.91715">
        <ele>1847.79</ele>
        <time>2013-07-20T08:44:59Z</time>
      </trkpt>
      <trkpt lat="45.05193" lon="5.91718">
        <ele>1850.68</ele>
        <time>2013-07-20T08:45:19Z</time>
      </trkpt>
      <trkpt lat="45.05198" lon="5.91725">
        <ele>1856.92</ele>
        <time>2013-07-20T08:45:42Z</time>
      </trkpt>
      <trkpt lat="45.05205" lon="5.91745">
        <ele>1858.85</ele>
        <time>2013-07-20T08:46:04Z</time>
      </trkpt>
      <trkpt lat="45.05192" lon="5.91753">
        <ele>1857.89</ele>
        <time>2013-07-20T08:46:24Z</time>
      </trkpt>
      <trkpt lat="45.05186" lon="5.91752">
        <ele>1856.44</ele>
        <time>2013-07-20T08:46:54Z</time>
      </trkpt>
      <trkpt lat="45.0518" lon="5.91743">
        <ele>1844.91</ele>
        <time>2013-07-20T08:49:29Z</time>
      </trkpt>
      <trkpt lat="45.05181" lon="5.91744">
        <ele>1854.04</ele>
        <time>2013-07-20T08:51:42Z</time>
      </trkpt>
      <trkpt lat="45.05186" lon="5.91757">
        <ele>1857.89</ele>
        <time>2013-07-20T08:52:02Z</time>
      </trkpt>
      <trkpt lat="45.05192" lon="5.91763">
        <ele>1862.69</ele>
        <time>2013-07-20T08:52:18Z</time>
      </trkpt>
      <trkpt lat="45.05199" lon="5.91782">
        <ele>1866.54</ele>
        <time>2013-07-20T08:52:42Z</time>
      </trkpt>
      <trkpt lat="45.05197" lon="5.91791">
        <ele>1871.34</ele>
        <time>2013-07-20T08:53:01Z</time>
      </trkpt>
      <trkpt lat="45.05195" lon="5.91804">
        <ele>1873.75</ele>
        <time>2013-07-20T08:53:24Z</time>
      </trkpt>
      <trkpt lat="45.05194" lon="5.91817">
        <ele>1876.15</ele>
        <time>2013-07-20T08:53:43Z</time>
      </trkpt>
      <trkpt lat="45.05195" lon="5.91821">
        <ele>1878.55</ele>
        <time>2013-07-20T08:53:55Z</time>
      </trkpt>
      <trkpt lat="45.05197" lon="5.91835">
        <ele>1881.92</ele>
        <time>2013-07-20T08:54:16Z</time>
      </trkpt>
      <trkpt lat="45.05194" lon="5.91841">
        <ele>1886.72</ele>
        <time>2013-07-20T08:54:30Z</time>
      </trkpt>
      <trkpt lat="45.05196" lon="5.9185">
        <ele>1890.57</ele>
        <time>2013-07-20T08:54:45Z</time>
      </trkpt>
      <trkpt lat="45.05199" lon="5.91862">
        <ele>1891.53</ele>
        <time>2013-07-20T08:55:03Z</time>
      </trkpt>
      <trkpt lat="45.05201" lon="5.91871">
        <ele>1893.93</ele>
        <time>2013-07-20T08:55:20Z</time>
      </trkpt>
      <trkpt lat="45.05202" lon="5.9189">
        <ele>1900.18</ele>
        <time>2013-07-20T08:55:45Z</time>
      </trkpt>
      <trkpt lat="45.05204" lon="5.91907">
        <ele>1904.51</ele>
        <time>2013-07-20T08:56:09Z</time>
      </trkpt>
      <trkpt lat="45.05205" lon="5.91913">
        <ele>1904.99</ele>
        <time>2013-07-20T08:56:25Z</time>
      </trkpt>
      <trkpt lat="45.05206" lon="5.91922">
        <ele>1907.87</ele>
        <time>2013-07-20T08:56:51Z</time>
      </trkpt>
      <trkpt lat="45.0521" lon="5.91924">
        <ele>1913.64</ele>
        <time>2013-07-20T08:57:07Z</time>
      </trkpt>
      <trkpt lat="45.05218" lon="5.91935">
        <ele>1919.89</ele>
        <time>2013-07-20T08:57:33Z</time>
      </trkpt>
      <trkpt lat="45.0522" lon="5.9194">
        <ele>1922.29</ele>
        <time>2013-07-20T08:57:49Z</time>
      </trkpt>
      <trkpt lat="45.05223" lon="5.91946">
        <ele>1924.22</ele>
        <time>2013-07-20T08:58:05Z</time>
      </trkpt>
      <trkpt lat="45.05228" lon="5.91953">
        <ele>1927.1</ele>
        <time>2013-07-20T08:58:24Z</time>
      </trkpt>
      <trkpt lat="45.0523" lon="5.91964">
        <ele>1927.58</ele>
        <time>2013-07-20T08:58:42Z</time>
      </trkpt>
      <trkpt lat="45.05233" lon="5.91969">
        <ele>1929.98</ele>
        <time>2013-07-20T08:58:58Z</time>
      </trkpt>
      <trkpt lat="45.05238" lon="5.91973">
        <ele>1929.98</ele>
        <time>2013-07-20T08:59:15Z</time>
      </trkpt>
      <trkpt lat="45.05243" lon="5.91985">
        <ele>1931.91</ele>
        <time>2013-07-20T08:59:35Z</time>
      </trkpt>
      <trkpt lat="45.05246" lon="5.91997">
        <ele>1935.75</ele>
        <time>2013-07-20T08:59:56Z</time>
      </trkpt>
      <trkpt lat="45.05251" lon="5.92007">
        <ele>1942</ele>
        <time>2013-07-20T09:00:18Z</time>
      </trkpt>
      <trkpt lat="45.0525" lon="5.92017">
        <ele>1943.92</ele>
        <time>2013-07-20T09:00:36Z</time>
      </trkpt>
      <trkpt lat="45.05249" lon="5.92024">
        <ele>1948.25</ele>
        <time>2013-07-20T09:00:57Z</time>
      </trkpt>
      <trkpt lat="45.0525" lon="5.92027">
        <ele>1951.13</ele>
        <time>2013-07-20T09:01:15Z</time>
      </trkpt>
      <trkpt lat="45.05256" lon="5.92039">
        <ele>1951.61</ele>
        <time>2013-07-20T09:01:40Z</time>
      </trkpt>
      <trkpt lat="45.05266" lon="5.92048">
        <ele>1957.86</ele>
        <time>2013-07-20T09:02:00Z</time>
      </trkpt>
      <trkpt lat="45.05271" lon="5.92054">
        <ele>1965.55</ele>
        <time>2013-07-20T09:02:20Z</time>
      </trkpt>
      <trkpt lat="45.05279" lon="5.92061">
        <ele>1969.4</ele>
        <time>2013-07-20T09:02:41Z</time>
      </trkpt>
      <trkpt lat="45.05283" lon="5.92072">
        <ele>1965.55</ele>
        <time>2013-07-20T09:03:01Z</time>
      </trkpt>
      <trkpt lat="45.05287" lon="5.92074">
        <ele>1963.15</ele>
        <time>2013-07-20T09:03:10Z</time>
      </trkpt>
      <trkpt lat="45.053" lon="5.92084">
        <ele>1964.59</ele>
        <time>2013-07-20T09:03:30Z</time>
      </trkpt>
      <trkpt lat="45.05309" lon="5.92097">
        <ele>1965.55</ele>
        <time>2013-07-20T09:03:50Z</time>
      </trkpt>
      <trkpt lat="45.05312" lon="5.921">
        <ele>1969.4</ele>
        <time>2013-07-20T09:04:21Z</time>
      </trkpt>
      <trkpt lat="45.05313" lon="5.92102">
        <ele>1974.2</ele>
        <time>2013-07-20T09:08:54Z</time>
      </trkpt>
      <trkpt lat="45.05324" lon="5.92122">
        <ele>1973.72</ele>
        <time>2013-07-20T09:09:20Z</time>
      </trkpt>
      <trkpt lat="45.05335" lon="5.92138">
        <ele>1981.9</ele>
        <time>2013-07-20T09:09:47Z</time>
      </trkpt>
      <trkpt lat="45.05343" lon="5.9215">
        <ele>1986.7</ele>
        <time>2013-07-20T09:10:11Z</time>
      </trkpt>
      <trkpt lat="45.05353" lon="5.92159">
        <ele>1991.03</ele>
        <time>2013-07-20T09:10:34Z</time>
      </trkpt>
      <trkpt lat="45.05355" lon="5.92165">
        <ele>1995.83</ele>
        <time>2013-07-20T09:10:51Z</time>
      </trkpt>
      <trkpt lat="45.05362" lon="5.92175">
        <ele>1998.72</ele>
        <time>2013-07-20T09:11:14Z</time>
      </trkpt>
      <trkpt lat="45.05368" lon="5.92182">
        <ele>2001.12</ele>
        <time>2013-07-20T09:11:29Z</time>
      </trkpt>
      <trkpt lat="45.05372" lon="5.92188">
        <ele>2004.97</ele>
        <time>2013-07-20T09:11:46Z</time>
      </trkpt>
      <trkpt lat="45.05378" lon="5.92195">
        <ele>2006.41</ele>
        <time>2013-07-20T09:12:01Z</time>
      </trkpt>
      <trkpt lat="45.05383" lon="5.92209">
        <ele>2010.25</ele>
        <time>2013-07-20T09:12:20Z</time>
      </trkpt>
      <trkpt lat="45.05393" lon="5.92218">
        <ele>2012.18</ele>
        <time>2013-07-20T09:12:40Z</time>
      </trkpt>
      <trkpt lat="45.05407" lon="5.92224">
        <ele>2013.14</ele>
        <time>2013-07-20T09:12:58Z</time>
      </trkpt>
      <trkpt lat="45.05419" lon="5.92238">
        <ele>2015.54</ele>
        <time>2013-07-20T09:13:21Z</time>
      </trkpt>
      <trkpt lat="45.05421" lon="5.92244">
        <ele>2018.43</ele>
        <time>2013-07-20T09:13:36Z</time>
      </trkpt>
      <trkpt lat="45.05432" lon="5.92249">
        <ele>2021.31</ele>
        <time>2013-07-20T09:13:53Z</time>
      </trkpt>
      <trkpt lat="45.05441" lon="5.92259">
        <ele>2023.23</ele>
        <time>2013-07-20T09:14:14Z</time>
      </trkpt>
      <trkpt lat="45.0546" lon="5.92277">
        <ele>2025.64</ele>
        <time>2013-07-20T09:14:41Z</time>
      </trkpt>
      <trkpt lat="45.0547" lon="5.92295">
        <ele>2027.56</ele>
        <time>2013-07-20T09:15:08Z</time>
      </trkpt>
      <trkpt lat="45.05469" lon="5.92307">
        <ele>2035.25</ele>
        <time>2013-07-20T09:15:32Z</time>
      </trkpt>
      <trkpt lat="45.05474" lon="5.92316">
        <ele>2037.65</ele>
        <time>2013-07-20T09:15:49Z</time>
      </trkpt>
      <trkpt lat="45.05481" lon="5.92336">
        <ele>2037.17</ele>
        <time>2013-07-20T09:16:12Z</time>
      </trkpt>
      <trkpt lat="45.05488" lon="5.92355">
        <ele>2037.17</ele>
        <time>2013-07-20T09:16:32Z</time>
      </trkpt>
      <trkpt lat="45.05483" lon="5.92381">
        <ele>2041.5</ele>
        <time>2013-07-20T09:17:00Z</time>
      </trkpt>
      <trkpt lat="45.05471" lon="5.92389">
        <ele>2042.46</ele>
        <time>2013-07-20T09:17:17Z</time>
      </trkpt>
      <trkpt lat="45.05476" lon="5.9239">
        <ele>2042.94</ele>
        <time>2013-07-20T09:17:37Z</time>
      </trkpt>
      <trkpt lat="45.05475" lon="5.92388">
        <ele>2042.94</ele>
        <time>2013-07-20T09:18:05Z</time>
      </trkpt>
      <trkpt lat="45.05476" lon="5.92384">
        <ele>2043.42</ele>
        <time>2013-07-20T09:18:25Z</time>
      </trkpt>
      <trkpt lat="45.05469" lon="5.92393">
        <ele>2038.13</ele>
        <time>2013-07-20T09:19:02Z</time>
      </trkpt>
      <trkpt lat="45.05473" lon="5.92394">
        <ele>2037.17</ele>
        <time>2013-07-20T09:19:07Z</time>
      </trkpt>
      <trkpt lat="45.05492" lon="5.92395">
        <ele>2041.5</ele>
        <time>2013-07-20T09:19:27Z</time>
      </trkpt>
      <trkpt lat="45.05502" lon="5.92407">
        <ele>2044.38</ele>
        <time>2013-07-20T09:19:46Z</time>
      </trkpt>
      <trkpt lat="45.05511" lon="5.92419">
        <ele>2042.94</ele>
        <time>2013-07-20T09:20:01Z</time>
      </trkpt>
      <trkpt lat="45.05511" lon="5.92424">
        <ele>2041.98</ele>
        <time>2013-07-20T09:20:05Z</time>
      </trkpt>
      <trkpt lat="45.05509" lon="5.92434">
        <ele>2041.02</ele>
        <time>2013-07-20T09:20:12Z</time>
      </trkpt>
      <trkpt lat="45.05496" lon="5.9245">
        <ele>2043.42</ele>
        <time>2013-07-20T09:20:32Z</time>
      </trkpt>
      <trkpt lat="45.0548" lon="5.92457">
        <ele>2043.9</ele>
        <time>2013-07-20T09:20:52Z</time>
      </trkpt>
      <trkpt lat="45.05479" lon="5.9246">
        <ele>2043.9</ele>
        <time>2013-07-20T09:21:08Z</time>
      </trkpt>
      <trkpt lat="45.05485" lon="5.92461">
        <ele>2047.75</ele>
        <time>2013-07-20T09:21:30Z</time>
      </trkpt>
      <trkpt lat="45.05486" lon="5.92461">
        <ele>2047.75</ele>
        <time>2013-07-20T09:21:31Z</time>
      </trkpt>
      <trkpt lat="45.05502" lon="5.92469">
        <ele>2048.71</ele>
        <time>2013-07-20T09:21:47Z</time>
      </trkpt>
      <trkpt lat="45.05519" lon="5.92486">
        <ele>2049.67</ele>
        <time>2013-07-20T09:22:06Z</time>
      </trkpt>
      <trkpt lat="45.05524" lon="5.92493">
        <ele>2050.15</ele>
        <time>2013-07-20T09:22:12Z</time>
      </trkpt>
      <trkpt lat="45.05533" lon="5.92499">
        <ele>2051.59</ele>
        <time>2013-07-20T09:22:24Z</time>
      </trkpt>
      <trkpt lat="45.05544" lon="5.92504">
        <ele>2054.47</ele>
        <time>2013-07-20T09:22:40Z</time>
      </trkpt>
      <trkpt lat="45.05546" lon="5.92505">
        <ele>2054.47</ele>
        <time>2013-07-20T09:22:43Z</time>
      </trkpt>
      <trkpt lat="45.05559" lon="5.92515">
        <ele>2053.99</ele>
        <time>2013-07-20T09:22:56Z</time>
      </trkpt>
      <trkpt lat="45.05564" lon="5.92517">
        <ele>2054.47</ele>
        <time>2013-07-20T09:23:01Z</time>
      </trkpt>
      <trkpt lat="45.05585" lon="5.92528">
        <ele>2054.47</ele>
        <time>2013-07-20T09:23:23Z</time>
      </trkpt>
      <trkpt lat="45.05589" lon="5.92529">
        <ele>2054.96</ele>
        <time>2013-07-20T09:23:26Z</time>
      </trkpt>
      <trkpt lat="45.05609" lon="5.92536">
        <ele>2054.47</ele>
        <time>2013-07-20T09:23:46Z</time>
      </trkpt>
      <trkpt lat="45.05616" lon="5.92541">
        <ele>2054.96</ele>
        <time>2013-07-20T09:23:54Z</time>
      </trkpt>
      <trkpt lat="45.05617" lon="5.92546">
        <ele>2054.96</ele>
        <time>2013-07-20T09:23:57Z</time>
      </trkpt>
      <trkpt lat="45.05627" lon="5.9255">
        <ele>2054.96</ele>
        <time>2013-07-20T09:24:09Z</time>
      </trkpt>
      <trkpt lat="45.05631" lon="5.92549">
        <ele>2055.44</ele>
        <time>2013-07-20T09:24:14Z</time>
      </trkpt>
      <trkpt lat="45.05645" lon="5.92562">
        <ele>2055.92</ele>
        <time>2013-07-20T09:24:30Z</time>
      </trkpt>
      <trkpt lat="45.05652" lon="5.92576">
        <ele>2055.92</ele>
        <time>2013-07-20T09:24:40Z</time>
      </trkpt>
      <trkpt lat="45.05668" lon="5.92588">
        <ele>2055.92</ele>
        <time>2013-07-20T09:25:02Z</time>
      </trkpt>
      <trkpt lat="45.05681" lon="5.92602">
        <ele>2056.4</ele>
        <time>2013-07-20T09:25:23Z</time>
      </trkpt>
      <trkpt lat="45.05695" lon="5.92615">
        <ele>2058.32</ele>
        <time>2013-07-20T09:25:43Z</time>
      </trkpt>
      <trkpt lat="45.05708" lon="5.92621">
        <ele>2061.68</ele>
        <time>2013-07-20T09:26:03Z</time>
      </trkpt>
      <trkpt lat="45.05718" lon="5.92638">
        <ele>2060.72</ele>
        <time>2013-07-20T09:26:20Z</time>
      </trkpt>
      <trkpt lat="45.05725" lon="5.92656">
        <ele>2059.76</ele>
        <time>2013-07-20T09:26:37Z</time>
      </trkpt>
      <trkpt lat="45.05717" lon="5.92672">
        <ele>2060.24</ele>
        <time>2013-07-20T09:26:51Z</time>
      </trkpt>
      <trkpt lat="45.05717" lon="5.92669">
        <ele>2060.72</ele>
        <time>2013-07-20T09:27:11Z</time>
      </trkpt>
      <trkpt lat="45.05716" lon="5.9267">
        <ele>2060.24</ele>
        <time>2013-07-20T09:27:53Z</time>
      </trkpt>
      <trkpt lat="45.05705" lon="5.92694">
        <ele>2059.28</ele>
        <time>2013-07-20T09:28:12Z</time>
      </trkpt>
      <trkpt lat="45.05704" lon="5.92697">
        <ele>2058.8</ele>
        <time>2013-07-20T09:28:15Z</time>
      </trkpt>
      <trkpt lat="45.05695" lon="5.9271">
        <ele>2056.88</ele>
        <time>2013-07-20T09:28:26Z</time>
      </trkpt>
      <trkpt lat="45.05688" lon="5.92725">
        <ele>2054.96</ele>
        <time>2013-07-20T09:28:42Z</time>
      </trkpt>
      <trkpt lat="45.05695" lon="5.92733">
        <ele>2055.44</ele>
        <time>2013-07-20T09:28:54Z</time>
      </trkpt>
      <trkpt lat="45.05702" lon="5.92762">
        <ele>2053.51</ele>
        <time>2013-07-20T09:29:15Z</time>
      </trkpt>
      <trkpt lat="45.05707" lon="5.92775">
        <ele>2053.51</ele>
        <time>2013-07-20T09:29:25Z</time>
      </trkpt>
      <trkpt lat="45.05704" lon="5.92782">
        <ele>2053.03</ele>
        <time>2013-07-20T09:29:32Z</time>
      </trkpt>
      <trkpt lat="45.05699" lon="5.92778">
        <ele>2053.03</ele>
        <time>2013-07-20T09:29:36Z</time>
      </trkpt>
      <trkpt lat="45.05677" lon="5.92771">
        <ele>2052.55</ele>
        <time>2013-07-20T09:30:00Z</time>
      </trkpt>
      <trkpt lat="45.05672" lon="5.92785">
        <ele>2052.07</ele>
        <time>2013-07-20T09:30:14Z</time>
      </trkpt>
      <trkpt lat="45.05671" lon="5.92786">
        <ele>2052.07</ele>
        <time>2013-07-20T09:30:15Z</time>
      </trkpt>
      <trkpt lat="45.05668" lon="5.92791">
        <ele>2051.59</ele>
        <time>2013-07-20T09:30:20Z</time>
      </trkpt>
      <trkpt lat="45.05655" lon="5.92799">
        <ele>2049.67</ele>
        <time>2013-07-20T09:30:35Z</time>
      </trkpt>
      <trkpt lat="45.05641" lon="5.92807">
        <ele>2051.11</ele>
        <time>2013-07-20T09:30:51Z</time>
      </trkpt>
      <trkpt lat="45.0564" lon="5.92808">
        <ele>2051.11</ele>
        <time>2013-07-20T09:30:54Z</time>
      </trkpt>
      <trkpt lat="45.05629" lon="5.9282">
        <ele>2053.51</ele>
        <time>2013-07-20T09:31:09Z</time>
      </trkpt>
      <trkpt lat="45.05628" lon="5.92822">
        <ele>2053.03</ele>
        <time>2013-07-20T09:31:11Z</time>
      </trkpt>
      <trkpt lat="45.0562" lon="5.92834">
        <ele>2051.11</ele>
        <time>2013-07-20T09:31:23Z</time>
      </trkpt>
      <trkpt lat="45.0562" lon="5.92846">
        <ele>2048.71</ele>
        <time>2013-07-20T09:31:37Z</time>
      </trkpt>
      <trkpt lat="45.05623" lon="5.92862">
        <ele>2049.67</ele>
        <time>2013-07-20T09:31:54Z</time>
      </trkpt>
      <trkpt lat="45.05622" lon="5.92862">
        <ele>2050.15</ele>
        <time>2013-07-20T09:32:08Z</time>
      </trkpt>
      <trkpt lat="45.0562" lon="5.92863">
        <ele>2049.19</ele>
        <time>2013-07-20T09:32:15Z</time>
      </trkpt>
      <trkpt lat="45.05606" lon="5.92868">
        <ele>2048.71</ele>
        <time>2013-07-20T09:32:29Z</time>
      </trkpt>
      <trkpt lat="45.05593" lon="5.9286">
        <ele>2048.23</ele>
        <time>2013-07-20T09:32:44Z</time>
      </trkpt>
      <trkpt lat="45.05588" lon="5.92867">
        <ele>2048.71</ele>
        <time>2013-07-20T09:32:58Z</time>
      </trkpt>
      <trkpt lat="45.0558" lon="5.92854">
        <ele>2047.75</ele>
        <time>2013-07-20T09:33:07Z</time>
      </trkpt>
      <trkpt lat="45.0556" lon="5.92845">
        <ele>2046.78</ele>
        <time>2013-07-20T09:33:33Z</time>
      </trkpt>
      <trkpt lat="45.0556" lon="5.92844">
        <ele>2046.78</ele>
        <time>2013-07-20T09:33:35Z</time>
      </trkpt>
      <trkpt lat="45.05559" lon="5.92842">
        <ele>2047.75</ele>
        <time>2013-07-20T09:33:38Z</time>
      </trkpt>
      <trkpt lat="45.05551" lon="5.92833">
        <ele>2046.3</ele>
        <time>2013-07-20T09:33:49Z</time>
      </trkpt>
      <trkpt lat="45.05545" lon="5.92833">
        <ele>2047.26</ele>
        <time>2013-07-20T09:34:03Z</time>
      </trkpt>
      <trkpt lat="45.05542" lon="5.92832">
        <ele>2051.11</ele>
        <time>2013-07-20T09:34:23Z</time>
      </trkpt>
      <trkpt lat="45.05541" lon="5.92827">
        <ele>2057.36</ele>
        <time>2013-07-20T09:36:29Z</time>
      </trkpt>
      <trkpt lat="45.05542" lon="5.92827">
        <ele>2056.4</ele>
        <time>2013-07-20T09:36:54Z</time>
      </trkpt>
      <trkpt lat="45.05542" lon="5.9283">
        <ele>2056.4</ele>
        <time>2013-07-20T09:37:24Z</time>
      </trkpt>
      <trkpt lat="45.05541" lon="5.92826">
        <ele>2053.03</ele>
        <time>2013-07-20T09:55:10Z</time>
      </trkpt>
      <trkpt lat="45.05545" lon="5.92823">
        <ele>2045.34</ele>
        <time>2013-07-20T11:12:05Z</time>
      </trkpt>
      <trkpt lat="45.05544" lon="5.92824">
        <ele>2046.78</ele>
        <time>2013-07-20T11:15:08Z</time>
      </trkpt>
      <trkpt lat="45.05544" lon="5.92826">
        <ele>2043.42</ele>
        <time>2013-07-20T11:43:54Z</time>
      </trkpt>
      <trkpt lat="45.05548" lon="5.9281">
        <ele>2045.34</ele>
        <time>2013-07-20T11:44:09Z</time>
      </trkpt>
      <trkpt lat="45.05548" lon="5.92789">
        <ele>2046.78</ele>
        <time>2013-07-20T11:44:25Z</time>
      </trkpt>
      <trkpt lat="45.05544" lon="5.92779">
        <ele>2046.3</ele>
        <time>2013-07-20T11:44:33Z</time>
      </trkpt>
      <trkpt lat="45.05542" lon="5.92759">
        <ele>2044.38</ele>
        <time>2013-07-20T11:44:50Z</time>
      </trkpt>
      <trkpt lat="45.05541" lon="5.92756">
        <ele>2045.82</ele>
        <time>2013-07-20T11:45:01Z</time>
      </trkpt>
      <trkpt lat="45.0555" lon="5.92742">
        <ele>2044.86</ele>
        <time>2013-07-20T11:45:16Z</time>
      </trkpt>
      <trkpt lat="45.05549" lon="5.92742">
        <ele>2044.38</ele>
        <time>2013-07-20T11:45:31Z</time>
      </trkpt>
      <trkpt lat="45.05545" lon="5.92753">
        <ele>2043.42</ele>
        <time>2013-07-20T11:45:44Z</time>
      </trkpt>
      <trkpt lat="45.05549" lon="5.92749">
        <ele>2043.9</ele>
        <time>2013-07-20T11:45:54Z</time>
      </trkpt>
      <trkpt lat="45.05548" lon="5.92748">
        <ele>2045.34</ele>
        <time>2013-07-20T11:46:19Z</time>
      </trkpt>
      <trkpt lat="45.05548" lon="5.92748">
        <ele>2045.82</ele>
        <time>2013-07-20T11:49:12Z</time>
      </trkpt>
      <trkpt lat="45.0555" lon="5.92747">
        <ele>2047.26</ele>
        <time>2013-07-20T11:52:04Z</time>
      </trkpt>
      <trkpt lat="45.0555" lon="5.92745">
        <ele>2047.75</ele>
        <time>2013-07-20T11:52:32Z</time>
      </trkpt>
      <trkpt lat="45.05552" lon="5.9274">
        <ele>2048.71</ele>
        <time>2013-07-20T11:52:43Z</time>
      </trkpt>
      <trkpt lat="45.05554" lon="5.92729">
        <ele>2050.15</ele>
        <time>2013-07-20T11:52:52Z</time>
      </trkpt>
      <trkpt lat="45.05555" lon="5.9272">
        <ele>2050.15</ele>
        <time>2013-07-20T11:52:59Z</time>
      </trkpt>
      <trkpt lat="45.05553" lon="5.92714">
        <ele>2049.67</ele>
        <time>2013-07-20T11:53:04Z</time>
      </trkpt>
      <trkpt lat="45.05542" lon="5.92688">
        <ele>2049.67</ele>
        <time>2013-07-20T11:53:23Z</time>
      </trkpt>
      <trkpt lat="45.0554" lon="5.9268">
        <ele>2048.71</ele>
        <time>2013-07-20T11:53:29Z</time>
      </trkpt>
      <trkpt lat="45.05539" lon="5.92677">
        <ele>2048.71</ele>
        <time>2013-07-20T11:53:31Z</time>
      </trkpt>
      <trkpt lat="45.05537" lon="5.92674">
        <ele>2048.71</ele>
        <time>2013-07-20T11:53:34Z</time>
      </trkpt>
      <trkpt lat="45.05532" lon="5.92655">
        <ele>2047.26</ele>
        <time>2013-07-20T11:53:47Z</time>
      </trkpt>
      <trkpt lat="45.05528" lon="5.92654">
        <ele>2047.75</ele>
        <time>2013-07-20T11:53:52Z</time>
      </trkpt>
      <trkpt lat="45.05526" lon="5.92652">
        <ele>2047.75</ele>
        <time>2013-07-20T11:53:55Z</time>
      </trkpt>
      <trkpt lat="45.05526" lon="5.9264">
        <ele>2046.3</ele>
        <time>2013-07-20T11:54:04Z</time>
      </trkpt>
      <trkpt lat="45.05525" lon="5.92626">
        <ele>2044.38</ele>
        <time>2013-07-20T11:54:19Z</time>
      </trkpt>
      <trkpt lat="45.05524" lon="5.92627">
        <ele>2044.38</ele>
        <time>2013-07-20T11:54:27Z</time>
      </trkpt>
      <trkpt lat="45.0552" lon="5.92614">
        <ele>2044.38</ele>
        <time>2013-07-20T11:54:35Z</time>
      </trkpt>
      <trkpt lat="45.05518" lon="5.92582">
        <ele>2042.46</ele>
        <time>2013-07-20T11:54:53Z</time>
      </trkpt>
      <trkpt lat="45.05503" lon="5.92561">
        <ele>2045.34</ele>
        <time>2013-07-20T11:55:10Z</time>
      </trkpt>
      <trkpt lat="45.05487" lon="5.92537">
        <ele>2042.94</ele>
        <time>2013-07-20T11:55:29Z</time>
      </trkpt>
      <trkpt lat="45.05484" lon="5.92532">
        <ele>2043.42</ele>
        <time>2013-07-20T11:55:49Z</time>
      </trkpt>
      <trkpt lat="45.05484" lon="5.92534">
        <ele>2043.42</ele>
        <time>2013-07-20T11:56:17Z</time>
      </trkpt>
      <trkpt lat="45.05478" lon="5.92521">
        <ele>2042.94</ele>
        <time>2013-07-20T11:57:25Z</time>
      </trkpt>
      <trkpt lat="45.05461" lon="5.92486">
        <ele>2043.42</ele>
        <time>2013-07-20T11:57:46Z</time>
      </trkpt>
      <trkpt lat="45.05446" lon="5.92469">
        <ele>2041.98</ele>
        <time>2013-07-20T11:58:03Z</time>
      </trkpt>
      <trkpt lat="45.05442" lon="5.92441">
        <ele>2039.57</ele>
        <time>2013-07-20T11:58:20Z</time>
      </trkpt>
      <trkpt lat="45.05448" lon="5.92405">
        <ele>2040.54</ele>
        <time>2013-07-20T11:58:42Z</time>
      </trkpt>
      <trkpt lat="45.05449" lon="5.92395">
        <ele>2040.05</ele>
        <time>2013-07-20T11:58:48Z</time>
      </trkpt>
      <trkpt lat="45.05455" lon="5.92387">
        <ele>2037.65</ele>
        <time>2013-07-20T11:58:56Z</time>
      </trkpt>
      <trkpt lat="45.05457" lon="5.92378">
        <ele>2036.21</ele>
        <time>2013-07-20T11:59:01Z</time>
      </trkpt>
      <trkpt lat="45.05462" lon="5.92365">
        <ele>2032.84</ele>
        <time>2013-07-20T11:59:09Z</time>
      </trkpt>
      <trkpt lat="45.05459" lon="5.9235">
        <ele>2029.96</ele>
        <time>2013-07-20T11:59:19Z</time>
      </trkpt>
      <trkpt lat="45.05468" lon="5.9234">
        <ele>2029.48</ele>
        <time>2013-07-20T11:59:34Z</time>
      </trkpt>
      <trkpt lat="45.05468" lon="5.92339">
        <ele>2029</ele>
        <time>2013-07-20T11:59:36Z</time>
      </trkpt>
      <trkpt lat="45.05468" lon="5.92327">
        <ele>2026.6</ele>
        <time>2013-07-20T11:59:47Z</time>
      </trkpt>
      <trkpt lat="45.05466" lon="5.92312">
        <ele>2022.75</ele>
        <time>2013-07-20T12:00:02Z</time>
      </trkpt>
      <trkpt lat="45.05466" lon="5.92306">
        <ele>2019.87</ele>
        <time>2013-07-20T12:00:09Z</time>
      </trkpt>
      <trkpt lat="45.05461" lon="5.92292">
        <ele>2014.1</ele>
        <time>2013-07-20T12:00:19Z</time>
      </trkpt>
      <trkpt lat="45.05447" lon="5.92268">
        <ele>2009.29</ele>
        <time>2013-07-20T12:00:37Z</time>
      </trkpt>
      <trkpt lat="45.05434" lon="5.9225">
        <ele>2008.81</ele>
        <time>2013-07-20T12:00:53Z</time>
      </trkpt>
      <trkpt lat="45.05433" lon="5.92249">
        <ele>2008.33</ele>
        <time>2013-07-20T12:00:58Z</time>
      </trkpt>
      <trkpt lat="45.05417" lon="5.92243">
        <ele>2004.49</ele>
        <time>2013-07-20T12:01:13Z</time>
      </trkpt>
      <trkpt lat="45.05415" lon="5.92235">
        <ele>2001.6</ele>
        <time>2013-07-20T12:01:25Z</time>
      </trkpt>
      <trkpt lat="45.05401" lon="5.92222">
        <ele>1997.28</ele>
        <time>2013-07-20T12:01:38Z</time>
      </trkpt>
      <trkpt lat="45.05384" lon="5.9221">
        <ele>1997.28</ele>
        <time>2013-07-20T12:01:54Z</time>
      </trkpt>
      <trkpt lat="45.05377" lon="5.92198">
        <ele>1996.8</ele>
        <time>2013-07-20T12:02:07Z</time>
      </trkpt>
      <trkpt lat="45.05371" lon="5.92187">
        <ele>1994.39</ele>
        <time>2013-07-20T12:02:20Z</time>
      </trkpt>
      <trkpt lat="45.05366" lon="5.92178">
        <ele>1992.47</ele>
        <time>2013-07-20T12:02:32Z</time>
      </trkpt>
      <trkpt lat="45.05359" lon="5.92173">
        <ele>1988.14</ele>
        <time>2013-07-20T12:02:44Z</time>
      </trkpt>
      <trkpt lat="45.05356" lon="5.92166">
        <ele>1985.26</ele>
        <time>2013-07-20T12:02:55Z</time>
      </trkpt>
      <trkpt lat="45.05349" lon="5.92159">
        <ele>1983.34</ele>
        <time>2013-07-20T12:03:09Z</time>
      </trkpt>
      <trkpt lat="45.05349" lon="5.92158">
        <ele>1983.34</ele>
        <time>2013-07-20T12:03:10Z</time>
      </trkpt>
      <trkpt lat="45.05343" lon="5.92148">
        <ele>1980.45</ele>
        <time>2013-07-20T12:03:23Z</time>
      </trkpt>
      <trkpt lat="45.05343" lon="5.92147">
        <ele>1980.45</ele>
        <time>2013-07-20T12:03:24Z</time>
      </trkpt>
      <trkpt lat="45.05335" lon="5.92141">
        <ele>1978.05</ele>
        <time>2013-07-20T12:03:32Z</time>
      </trkpt>
      <trkpt lat="45.05328" lon="5.92134">
        <ele>1972.28</ele>
        <time>2013-07-20T12:03:41Z</time>
      </trkpt>
      <trkpt lat="45.05324" lon="5.92126">
        <ele>1968.92</ele>
        <time>2013-07-20T12:03:49Z</time>
      </trkpt>
      <trkpt lat="45.05315" lon="5.92112">
        <ele>1963.15</ele>
        <time>2013-07-20T12:04:01Z</time>
      </trkpt>
      <trkpt lat="45.05313" lon="5.9211">
        <ele>1963.15</ele>
        <time>2013-07-20T12:04:03Z</time>
      </trkpt>
      <trkpt lat="45.05307" lon="5.92096">
        <ele>1960.75</ele>
        <time>2013-07-20T12:04:15Z</time>
      </trkpt>
      <trkpt lat="45.05305" lon="5.92093">
        <ele>1959.3</ele>
        <time>2013-07-20T12:04:19Z</time>
      </trkpt>
      <trkpt lat="45.05298" lon="5.92085">
        <ele>1954.98</ele>
        <time>2013-07-20T12:04:28Z</time>
      </trkpt>
      <trkpt lat="45.05291" lon="5.92077">
        <ele>1950.17</ele>
        <time>2013-07-20T12:04:37Z</time>
      </trkpt>
      <trkpt lat="45.05281" lon="5.92075">
        <ele>1945.85</ele>
        <time>2013-07-20T12:04:51Z</time>
      </trkpt>
      <trkpt lat="45.05277" lon="5.92071">
        <ele>1944.88</ele>
        <time>2013-07-20T12:05:06Z</time>
      </trkpt>
      <trkpt lat="45.05273" lon="5.92064">
        <ele>1943.92</ele>
        <time>2013-07-20T12:05:18Z</time>
      </trkpt>
      <trkpt lat="45.05266" lon="5.92053">
        <ele>1941.52</ele>
        <time>2013-07-20T12:05:32Z</time>
      </trkpt>
      <trkpt lat="45.05264" lon="5.9205">
        <ele>1940.56</ele>
        <time>2013-07-20T12:05:35Z</time>
      </trkpt>
      <trkpt lat="45.05251" lon="5.92044">
        <ele>1938.16</ele>
        <time>2013-07-20T12:05:48Z</time>
      </trkpt>
      <trkpt lat="45.05245" lon="5.92028">
        <ele>1938.16</ele>
        <time>2013-07-20T12:06:07Z</time>
      </trkpt>
      <trkpt lat="45.05246" lon="5.92018">
        <ele>1936.23</ele>
        <time>2013-07-20T12:06:27Z</time>
      </trkpt>
      <trkpt lat="45.05249" lon="5.92011">
        <ele>1933.35</ele>
        <time>2013-07-20T12:06:39Z</time>
      </trkpt>
      <trkpt lat="45.05249" lon="5.92">
        <ele>1931.43</ele>
        <time>2013-07-20T12:06:47Z</time>
      </trkpt>
      <trkpt lat="45.05242" lon="5.91988">
        <ele>1927.1</ele>
        <time>2013-07-20T12:06:59Z</time>
      </trkpt>
      <trkpt lat="45.05239" lon="5.91977">
        <ele>1923.74</ele>
        <time>2013-07-20T12:07:12Z</time>
      </trkpt>
      <trkpt lat="45.05236" lon="5.9197">
        <ele>1921.33</ele>
        <time>2013-07-20T12:07:24Z</time>
      </trkpt>
      <trkpt lat="45.05229" lon="5.91967">
        <ele>1918.45</ele>
        <time>2013-07-20T12:07:39Z</time>
      </trkpt>
      <trkpt lat="45.05224" lon="5.91958">
        <ele>1914.6</ele>
        <time>2013-07-20T12:07:51Z</time>
      </trkpt>
      <trkpt lat="45.0522" lon="5.91953">
        <ele>1910.28</ele>
        <time>2013-07-20T12:08:01Z</time>
      </trkpt>
      <trkpt lat="45.0522" lon="5.91945">
        <ele>1906.43</ele>
        <time>2013-07-20T12:08:16Z</time>
      </trkpt>
      <trkpt lat="45.05216" lon="5.91941">
        <ele>1903.55</ele>
        <time>2013-07-20T12:08:28Z</time>
      </trkpt>
      <trkpt lat="45.05212" lon="5.9193">
        <ele>1900.66</ele>
        <time>2013-07-20T12:08:40Z</time>
      </trkpt>
      <trkpt lat="45.05203" lon="5.91925">
        <ele>1895.38</ele>
        <time>2013-07-20T12:08:54Z</time>
      </trkpt>
      <trkpt lat="45.05208" lon="5.91915">
        <ele>1893.45</ele>
        <time>2013-07-20T12:09:08Z</time>
      </trkpt>
      <trkpt lat="45.052" lon="5.91915">
        <ele>1891.05</ele>
        <time>2013-07-20T12:09:26Z</time>
      </trkpt>
      <trkpt lat="45.05198" lon="5.91907">
        <ele>1889.13</ele>
        <time>2013-07-20T12:09:45Z</time>
      </trkpt>
      <trkpt lat="45.05197" lon="5.91892">
        <ele>1886.72</ele>
        <time>2013-07-20T12:10:01Z</time>
      </trkpt>
      <trkpt lat="45.05198" lon="5.91888">
        <ele>1885.76</ele>
        <time>2013-07-20T12:10:04Z</time>
      </trkpt>
      <trkpt lat="45.05199" lon="5.9188">
        <ele>1884.8</ele>
        <time>2013-07-20T12:10:09Z</time>
      </trkpt>
      <trkpt lat="45.052" lon="5.91872">
        <ele>1883.36</ele>
        <time>2013-07-20T12:10:14Z</time>
      </trkpt>
      <trkpt lat="45.05196" lon="5.9186">
        <ele>1884.8</ele>
        <time>2013-07-20T12:10:22Z</time>
      </trkpt>
      <trkpt lat="45.05194" lon="5.91854">
        <ele>1883.84</ele>
        <time>2013-07-20T12:10:26Z</time>
      </trkpt>
      <trkpt lat="45.05193" lon="5.91836">
        <ele>1880.48</ele>
        <time>2013-07-20T12:10:43Z</time>
      </trkpt>
      <trkpt lat="45.05194" lon="5.91824">
        <ele>1876.63</ele>
        <time>2013-07-20T12:10:57Z</time>
      </trkpt>
      <trkpt lat="45.05191" lon="5.91812">
        <ele>1873.27</ele>
        <time>2013-07-20T12:11:11Z</time>
      </trkpt>
      <trkpt lat="45.05193" lon="5.91802">
        <ele>1869.9</ele>
        <time>2013-07-20T12:11:22Z</time>
      </trkpt>
      <trkpt lat="45.0519" lon="5.91797">
        <ele>1867.5</ele>
        <time>2013-07-20T12:11:31Z</time>
      </trkpt>
      <trkpt lat="45.05193" lon="5.91788">
        <ele>1865.09</ele>
        <time>2013-07-20T12:11:44Z</time>
      </trkpt>
      <trkpt lat="45.05196" lon="5.91779">
        <ele>1863.65</ele>
        <time>2013-07-20T12:11:56Z</time>
      </trkpt>
      <trkpt lat="45.05196" lon="5.91767">
        <ele>1861.25</ele>
        <time>2013-07-20T12:12:06Z</time>
      </trkpt>
      <trkpt lat="45.05196" lon="5.91764">
        <ele>1860.77</ele>
        <time>2013-07-20T12:12:08Z</time>
      </trkpt>
      <trkpt lat="45.05188" lon="5.91753">
        <ele>1856.44</ele>
        <time>2013-07-20T12:12:24Z</time>
      </trkpt>
      <trkpt lat="45.0519" lon="5.91744">
        <ele>1853.08</ele>
        <time>2013-07-20T12:12:37Z</time>
      </trkpt>
      <trkpt lat="45.05197" lon="5.91745">
        <ele>1850.68</ele>
        <time>2013-07-20T12:12:44Z</time>
      </trkpt>
      <trkpt lat="45.05198" lon="5.91734">
        <ele>1848.75</ele>
        <time>2013-07-20T12:12:57Z</time>
      </trkpt>
      <trkpt lat="45.05191" lon="5.91729">
        <ele>1842.98</ele>
        <time>2013-07-20T12:13:33Z</time>
      </trkpt>
      <trkpt lat="45.05185" lon="5.91718">
        <ele>1840.1</ele>
        <time>2013-07-20T12:13:48Z</time>
      </trkpt>
      <trkpt lat="45.05185" lon="5.91711">
        <ele>1836.74</ele>
        <time>2013-07-20T12:14:01Z</time>
      </trkpt>
      <trkpt lat="45.05182" lon="5.91706">
        <ele>1835.77</ele>
        <time>2013-07-20T12:14:08Z</time>
      </trkpt>
      <trkpt lat="45.05181" lon="5.91703">
        <ele>1835.29</ele>
        <time>2013-07-20T12:14:10Z</time>
      </trkpt>
      <trkpt lat="45.05179" lon="5.91691">
        <ele>1835.29</ele>
        <time>2013-07-20T12:14:17Z</time>
      </trkpt>
      <trkpt lat="45.0518" lon="5.91687">
        <ele>1835.29</ele>
        <time>2013-07-20T12:14:20Z</time>
      </trkpt>
      <trkpt lat="45.05181" lon="5.91675">
        <ele>1834.81</ele>
        <time>2013-07-20T12:14:28Z</time>
      </trkpt>
      <trkpt lat="45.05183" lon="5.91651">
        <ele>1829.05</ele>
        <time>2013-07-20T12:14:45Z</time>
      </trkpt>
      <trkpt lat="45.05178" lon="5.91635">
        <ele>1822.32</ele>
        <time>2013-07-20T12:14:57Z</time>
      </trkpt>
      <trkpt lat="45.05177" lon="5.91629">
        <ele>1820.87</ele>
        <time>2013-07-20T12:15:03Z</time>
      </trkpt>
      <trkpt lat="45.05177" lon="5.91624">
        <ele>1819.43</ele>
        <time>2013-07-20T12:15:07Z</time>
      </trkpt>
      <trkpt lat="45.05177" lon="5.9161">
        <ele>1817.03</ele>
        <time>2013-07-20T12:15:18Z</time>
      </trkpt>
      <trkpt lat="45.05176" lon="5.91593">
        <ele>1814.15</ele>
        <time>2013-07-20T12:15:33Z</time>
      </trkpt>
      <trkpt lat="45.05175" lon="5.91589">
        <ele>1812.7</ele>
        <time>2013-07-20T12:15:36Z</time>
      </trkpt>
      <trkpt lat="45.05175" lon="5.91578">
        <ele>1810.3</ele>
        <time>2013-07-20T12:15:45Z</time>
      </trkpt>
      <trkpt lat="45.05174" lon="5.91567">
        <ele>1808.38</ele>
        <time>2013-07-20T12:15:55Z</time>
      </trkpt>
      <trkpt lat="45.05175" lon="5.91563">
        <ele>1807.42</ele>
        <time>2013-07-20T12:15:58Z</time>
      </trkpt>
      <trkpt lat="45.05171" lon="5.9155">
        <ele>1803.57</ele>
        <time>2013-07-20T12:16:11Z</time>
      </trkpt>
      <trkpt lat="45.05168" lon="5.91538">
        <ele>1800.21</ele>
        <time>2013-07-20T12:16:23Z</time>
      </trkpt>
      <trkpt lat="45.05163" lon="5.91526">
        <ele>1793.96</ele>
        <time>2013-07-20T12:16:36Z</time>
      </trkpt>
      <trkpt lat="45.05163" lon="5.91522">
        <ele>1793</ele>
        <time>2013-07-20T12:16:40Z</time>
      </trkpt>
      <trkpt lat="45.05161" lon="5.91518">
        <ele>1791.55</ele>
        <time>2013-07-20T12:16:44Z</time>
      </trkpt>
      <trkpt lat="45.05152" lon="5.91498">
        <ele>1789.15</ele>
        <time>2013-07-20T12:16:59Z</time>
      </trkpt>
      <trkpt lat="45.05155" lon="5.91477">
        <ele>1787.71</ele>
        <time>2013-07-20T12:17:14Z</time>
      </trkpt>
      <trkpt lat="45.05157" lon="5.9147">
        <ele>1786.27</ele>
        <time>2013-07-20T12:17:19Z</time>
      </trkpt>
      <trkpt lat="45.05157" lon="5.91461">
        <ele>1784.82</ele>
        <time>2013-07-20T12:17:25Z</time>
      </trkpt>
      <trkpt lat="45.05155" lon="5.91448">
        <ele>1783.38</ele>
        <time>2013-07-20T12:17:35Z</time>
      </trkpt>
      <trkpt lat="45.05156" lon="5.91437">
        <ele>1782.42</ele>
        <time>2013-07-20T12:17:48Z</time>
      </trkpt>
      <trkpt lat="45.05157" lon="5.91434">
        <ele>1782.42</ele>
        <time>2013-07-20T12:17:51Z</time>
      </trkpt>
      <trkpt lat="45.05154" lon="5.9142">
        <ele>1781.94</ele>
        <time>2013-07-20T12:18:00Z</time>
      </trkpt>
      <trkpt lat="45.05149" lon="5.9141">
        <ele>1780.5</ele>
        <time>2013-07-20T12:18:17Z</time>
      </trkpt>
      <trkpt lat="45.05149" lon="5.91408">
        <ele>1780.02</ele>
        <time>2013-07-20T12:18:20Z</time>
      </trkpt>
      <trkpt lat="45.05145" lon="5.91402">
        <ele>1779.54</ele>
        <time>2013-07-20T12:18:25Z</time>
      </trkpt>
      <trkpt lat="45.05136" lon="5.91395">
        <ele>1776.65</ele>
        <time>2013-07-20T12:18:39Z</time>
      </trkpt>
      <trkpt lat="45.05134" lon="5.9139">
        <ele>1775.69</ele>
        <time>2013-07-20T12:18:43Z</time>
      </trkpt>
      <trkpt lat="45.05129" lon="5.91386">
        <ele>1774.25</ele>
        <time>2013-07-20T12:18:48Z</time>
      </trkpt>
      <trkpt lat="45.05121" lon="5.91376">
        <ele>1771.37</ele>
        <time>2013-07-20T12:18:57Z</time>
      </trkpt>
      <trkpt lat="45.05113" lon="5.91372">
        <ele>1767.52</ele>
        <time>2013-07-20T12:19:07Z</time>
      </trkpt>
      <trkpt lat="45.05102" lon="5.91359">
        <ele>1764.64</ele>
        <time>2013-07-20T12:19:22Z</time>
      </trkpt>
      <trkpt lat="45.05091" lon="5.91355">
        <ele>1764.16</ele>
        <time>2013-07-20T12:19:38Z</time>
      </trkpt>
      <trkpt lat="45.05084" lon="5.91348">
        <ele>1762.23</ele>
        <time>2013-07-20T12:19:51Z</time>
      </trkpt>
      <trkpt lat="45.05082" lon="5.91337">
        <ele>1762.71</ele>
        <time>2013-07-20T12:20:04Z</time>
      </trkpt>
      <trkpt lat="45.05076" lon="5.91327">
        <ele>1760.79</ele>
        <time>2013-07-20T12:20:19Z</time>
      </trkpt>
      <trkpt lat="45.0507" lon="5.91318">
        <ele>1759.35</ele>
        <time>2013-07-20T12:20:28Z</time>
      </trkpt>
      <trkpt lat="45.05065" lon="5.91302">
        <ele>1758.87</ele>
        <time>2013-07-20T12:20:42Z</time>
      </trkpt>
      <trkpt lat="45.05061" lon="5.91288">
        <ele>1756.47</ele>
        <time>2013-07-20T12:20:57Z</time>
      </trkpt>
      <trkpt lat="45.05057" lon="5.91276">
        <ele>1753.58</ele>
        <time>2013-07-20T12:21:12Z</time>
      </trkpt>
      <trkpt lat="45.0506" lon="5.91261">
        <ele>1750.22</ele>
        <time>2013-07-20T12:21:27Z</time>
      </trkpt>
      <trkpt lat="45.05056" lon="5.9125">
        <ele>1746.85</ele>
        <time>2013-07-20T12:21:41Z</time>
      </trkpt>
      <trkpt lat="45.05056" lon="5.91246">
        <ele>1745.89</ele>
        <time>2013-07-20T12:21:45Z</time>
      </trkpt>
      <trkpt lat="45.05055" lon="5.91238">
        <ele>1744.93</ele>
        <time>2013-07-20T12:21:50Z</time>
      </trkpt>
      <trkpt lat="45.05053" lon="5.91228">
        <ele>1741.08</ele>
        <time>2013-07-20T12:22:03Z</time>
      </trkpt>
      <trkpt lat="45.05051" lon="5.91214">
        <ele>1741.08</ele>
        <time>2013-07-20T12:22:15Z</time>
      </trkpt>
      <trkpt lat="45.05053" lon="5.912">
        <ele>1738.68</ele>
        <time>2013-07-20T12:22:28Z</time>
      </trkpt>
      <trkpt lat="45.05052" lon="5.91192">
        <ele>1736.28</ele>
        <time>2013-07-20T12:22:36Z</time>
      </trkpt>
      <trkpt lat="45.05049" lon="5.91183">
        <ele>1734.36</ele>
        <time>2013-07-20T12:22:49Z</time>
      </trkpt>
      <trkpt lat="45.05044" lon="5.91174">
        <ele>1731.47</ele>
        <time>2013-07-20T12:23:04Z</time>
      </trkpt>
      <trkpt lat="45.05042" lon="5.9117">
        <ele>1729.55</ele>
        <time>2013-07-20T12:23:08Z</time>
      </trkpt>
      <trkpt lat="45.05039" lon="5.91169">
        <ele>1728.59</ele>
        <time>2013-07-20T12:23:11Z</time>
      </trkpt>
      <trkpt lat="45.05035" lon="5.91167">
        <ele>1727.63</ele>
        <time>2013-07-20T12:23:15Z</time>
      </trkpt>
      <trkpt lat="45.05034" lon="5.91162">
        <ele>1726.67</ele>
        <time>2013-07-20T12:23:19Z</time>
      </trkpt>
      <trkpt lat="45.05037" lon="5.9115">
        <ele>1726.18</ele>
        <time>2013-07-20T12:23:25Z</time>
      </trkpt>
      <trkpt lat="45.05033" lon="5.91136">
        <ele>1726.18</ele>
        <time>2013-07-20T12:23:34Z</time>
      </trkpt>
      <trkpt lat="45.05035" lon="5.91132">
        <ele>1725.7</ele>
        <time>2013-07-20T12:23:38Z</time>
      </trkpt>
      <trkpt lat="45.05037" lon="5.91123">
        <ele>1724.74</ele>
        <time>2013-07-20T12:23:43Z</time>
      </trkpt>
      <trkpt lat="45.05037" lon="5.91103">
        <ele>1722.34</ele>
        <time>2013-07-20T12:23:59Z</time>
      </trkpt>
      <trkpt lat="45.05044" lon="5.91094">
        <ele>1720.42</ele>
        <time>2013-07-20T12:24:13Z</time>
      </trkpt>
      <trkpt lat="45.05046" lon="5.91088">
        <ele>1719.46</ele>
        <time>2013-07-20T12:24:18Z</time>
      </trkpt>
      <trkpt lat="45.05049" lon="5.91085">
        <ele>1719.46</ele>
        <time>2013-07-20T12:24:21Z</time>
      </trkpt>
      <trkpt lat="45.05058" lon="5.91059">
        <ele>1718.97</ele>
        <time>2013-07-20T12:24:35Z</time>
      </trkpt>
      <trkpt lat="45.05062" lon="5.91042">
        <ele>1719.94</ele>
        <time>2013-07-20T12:24:53Z</time>
      </trkpt>
      <trkpt lat="45.05062" lon="5.91024">
        <ele>1719.94</ele>
        <time>2013-07-20T12:25:11Z</time>
      </trkpt>
      <trkpt lat="45.05066" lon="5.90998">
        <ele>1717.53</ele>
        <time>2013-07-20T12:25:26Z</time>
      </trkpt>
      <trkpt lat="45.05064" lon="5.90986">
        <ele>1718.49</ele>
        <time>2013-07-20T12:25:39Z</time>
      </trkpt>
      <trkpt lat="45.05064" lon="5.9098">
        <ele>1718.97</ele>
        <time>2013-07-20T12:25:45Z</time>
      </trkpt>
      <trkpt lat="45.05065" lon="5.90973">
        <ele>1718.97</ele>
        <time>2013-07-20T12:25:49Z</time>
      </trkpt>
      <trkpt lat="45.05072" lon="5.90948">
        <ele>1717.05</ele>
        <time>2013-07-20T12:26:05Z</time>
      </trkpt>
      <trkpt lat="45.05074" lon="5.9094">
        <ele>1716.57</ele>
        <time>2013-07-20T12:26:12Z</time>
      </trkpt>
      <trkpt lat="45.05079" lon="5.90916">
        <ele>1715.13</ele>
        <time>2013-07-20T12:26:28Z</time>
      </trkpt>
      <trkpt lat="45.05079" lon="5.90915">
        <ele>1715.13</ele>
        <time>2013-07-20T12:26:29Z</time>
      </trkpt>
      <trkpt lat="45.05081" lon="5.90912">
        <ele>1715.13</ele>
        <time>2013-07-20T12:26:32Z</time>
      </trkpt>
      <trkpt lat="45.05085" lon="5.90912">
        <ele>1714.65</ele>
        <time>2013-07-20T12:26:36Z</time>
      </trkpt>
      <trkpt lat="45.0509" lon="5.90899">
        <ele>1708.88</ele>
        <time>2013-07-20T12:26:49Z</time>
      </trkpt>
      <trkpt lat="45.05092" lon="5.90895">
        <ele>1707.92</ele>
        <time>2013-07-20T12:26:52Z</time>
      </trkpt>
      <trkpt lat="45.05094" lon="5.90883">
        <ele>1706.96</ele>
        <time>2013-07-20T12:27:00Z</time>
      </trkpt>
      <trkpt lat="45.05094" lon="5.90879">
        <ele>1706.48</ele>
        <time>2013-07-20T12:27:02Z</time>
      </trkpt>
      <trkpt lat="45.05095" lon="5.90875">
        <ele>1706</ele>
        <time>2013-07-20T12:27:05Z</time>
      </trkpt>
      <trkpt lat="45.05095" lon="5.90868">
        <ele>1705.52</ele>
        <time>2013-07-20T12:27:10Z</time>
      </trkpt>
      <trkpt lat="45.05094" lon="5.90861">
        <ele>1703.11</ele>
        <time>2013-07-20T12:27:27Z</time>
      </trkpt>
      <trkpt lat="45.05094" lon="5.90861">
        <ele>1702.63</ele>
        <time>2013-07-20T12:28:21Z</time>
      </trkpt>
      <trkpt lat="45.051" lon="5.90845">
        <ele>1707.44</ele>
        <time>2013-07-20T12:28:33Z</time>
      </trkpt>
      <trkpt lat="45.05104" lon="5.90832">
        <ele>1709.36</ele>
        <time>2013-07-20T12:28:45Z</time>
      </trkpt>
      <trkpt lat="45.05103" lon="5.90818">
        <ele>1707.92</ele>
        <time>2013-07-20T12:28:57Z</time>
      </trkpt>
      <trkpt lat="45.05112" lon="5.90793">
        <ele>1706.96</ele>
        <time>2013-07-20T12:29:15Z</time>
      </trkpt>
      <trkpt lat="45.05113" lon="5.9079">
        <ele>1707.44</ele>
        <time>2013-07-20T12:29:18Z</time>
      </trkpt>
      <trkpt lat="45.05119" lon="5.90771">
        <ele>1706.48</ele>
        <time>2013-07-20T12:29:33Z</time>
      </trkpt>
      <trkpt lat="45.05123" lon="5.90751">
        <ele>1700.23</ele>
        <time>2013-07-20T12:29:44Z</time>
      </trkpt>
      <trkpt lat="45.05124" lon="5.90739">
        <ele>1696.86</ele>
        <time>2013-07-20T12:29:49Z</time>
      </trkpt>
      <trkpt lat="45.05131" lon="5.90709">
        <ele>1692.54</ele>
        <time>2013-07-20T12:30:04Z</time>
      </trkpt>
      <trkpt lat="45.0513" lon="5.90679">
        <ele>1682.44</ele>
        <time>2013-07-20T12:30:22Z</time>
      </trkpt>
      <trkpt lat="45.05128" lon="5.90675">
        <ele>1680.04</ele>
        <time>2013-07-20T12:30:25Z</time>
      </trkpt>
      <trkpt lat="45.05121" lon="5.90645">
        <ele>1674.75</ele>
        <time>2013-07-20T12:30:42Z</time>
      </trkpt>
      <trkpt lat="45.05121" lon="5.90619">
        <ele>1672.35</ele>
        <time>2013-07-20T12:30:57Z</time>
      </trkpt>
      <trkpt lat="45.05127" lon="5.90581">
        <ele>1666.1</ele>
        <time>2013-07-20T12:31:16Z</time>
      </trkpt>
      <trkpt lat="45.0513" lon="5.90571">
        <ele>1664.18</ele>
        <time>2013-07-20T12:31:21Z</time>
      </trkpt>
      <trkpt lat="45.05131" lon="5.90566">
        <ele>1664.18</ele>
        <time>2013-07-20T12:31:24Z</time>
      </trkpt>
      <trkpt lat="45.05136" lon="5.90554">
        <ele>1666.1</ele>
        <time>2013-07-20T12:31:42Z</time>
      </trkpt>
      <trkpt lat="45.05142" lon="5.90523">
        <ele>1665.62</ele>
        <time>2013-07-20T12:31:59Z</time>
      </trkpt>
      <trkpt lat="45.05144" lon="5.90512">
        <ele>1665.62</ele>
        <time>2013-07-20T12:32:05Z</time>
      </trkpt>
      <trkpt lat="45.05144" lon="5.90503">
        <ele>1664.66</ele>
        <time>2013-07-20T12:32:10Z</time>
      </trkpt>
      <trkpt lat="45.05149" lon="5.90468">
        <ele>1659.85</ele>
        <time>2013-07-20T12:32:29Z</time>
      </trkpt>
      <trkpt lat="45.05152" lon="5.90452">
        <ele>1656.97</ele>
        <time>2013-07-20T12:32:38Z</time>
      </trkpt>
      <trkpt lat="45.05159" lon="5.90427">
        <ele>1655.05</ele>
        <time>2013-07-20T12:32:54Z</time>
      </trkpt>
      <trkpt lat="45.05166" lon="5.90396">
        <ele>1657.45</ele>
        <time>2013-07-20T12:33:11Z</time>
      </trkpt>
      <trkpt lat="45.05174" lon="5.90369">
        <ele>1660.33</ele>
        <time>2013-07-20T12:33:26Z</time>
      </trkpt>
      <trkpt lat="45.05175" lon="5.90356">
        <ele>1659.37</ele>
        <time>2013-07-20T12:33:36Z</time>
      </trkpt>
      <trkpt lat="45.05177" lon="5.90342">
        <ele>1657.45</ele>
        <time>2013-07-20T12:33:45Z</time>
      </trkpt>
      <trkpt lat="45.05176" lon="5.90333">
        <ele>1656.49</ele>
        <time>2013-07-20T12:33:51Z</time>
      </trkpt>
      <trkpt lat="45.05169" lon="5.90319">
        <ele>1654.57</ele>
        <time>2013-07-20T12:34:02Z</time>
      </trkpt>
      <trkpt lat="45.05162" lon="5.90303">
        <ele>1652.64</ele>
        <time>2013-07-20T12:34:13Z</time>
      </trkpt>
      <trkpt lat="45.0515" lon="5.90269">
        <ele>1652.64</ele>
        <time>2013-07-20T12:34:37Z</time>
      </trkpt>
      <trkpt lat="45.05146" lon="5.90244">
        <ele>1650.72</ele>
        <time>2013-07-20T12:34:55Z</time>
      </trkpt>
      <trkpt lat="45.05148" lon="5.90235">
        <ele>1650.24</ele>
        <time>2013-07-20T12:35:02Z</time>
      </trkpt>
      <trkpt lat="45.05155" lon="5.90206">
        <ele>1653.12</ele>
        <time>2013-07-20T12:35:20Z</time>
      </trkpt>
      <trkpt lat="45.05157" lon="5.90188">
        <ele>1657.45</ele>
        <time>2013-07-20T12:35:38Z</time>
      </trkpt>
      <trkpt lat="45.05157" lon="5.90187">
        <ele>1657.45</ele>
        <time>2013-07-20T12:35:39Z</time>
      </trkpt>
      <trkpt lat="45.05176" lon="5.90178">
        <ele>1656.49</ele>
        <time>2013-07-20T12:35:58Z</time>
      </trkpt>
      <trkpt lat="45.05176" lon="5.90177">
        <ele>1656.01</ele>
        <time>2013-07-20T12:35:59Z</time>
      </trkpt>
      <trkpt lat="45.05187" lon="5.90148">
        <ele>1652.16</ele>
        <time>2013-07-20T12:36:18Z</time>
      </trkpt>
      <trkpt lat="45.05191" lon="5.90143">
        <ele>1650.72</ele>
        <time>2013-07-20T12:36:24Z</time>
      </trkpt>
      <trkpt lat="45.05191" lon="5.90137">
        <ele>1649.76</ele>
        <time>2013-07-20T12:36:30Z</time>
      </trkpt>
      <trkpt lat="45.05186" lon="5.90134">
        <ele>1647.36</ele>
        <time>2013-07-20T12:36:36Z</time>
      </trkpt>
      <trkpt lat="45.05181" lon="5.90118">
        <ele>1640.63</ele>
        <time>2013-07-20T12:36:53Z</time>
      </trkpt>
      <trkpt lat="45.05182" lon="5.90109">
        <ele>1638.7</ele>
        <time>2013-07-20T12:37:10Z</time>
      </trkpt>
      <trkpt lat="45.05181" lon="5.90113">
        <ele>1638.22</ele>
        <time>2013-07-20T12:37:35Z</time>
      </trkpt>
      <trkpt lat="45.05181" lon="5.90105">
        <ele>1637.26</ele>
        <time>2013-07-20T12:38:14Z</time>
      </trkpt>
      <trkpt lat="45.0518" lon="5.90096">
        <ele>1636.78</ele>
        <time>2013-07-20T12:38:33Z</time>
      </trkpt>
      <trkpt lat="45.05181" lon="5.90089">
        <ele>1635.34</ele>
        <time>2013-07-20T12:38:39Z</time>
      </trkpt>
      <trkpt lat="45.05186" lon="5.90075">
        <ele>1640.63</ele>
        <time>2013-07-20T12:38:50Z</time>
      </trkpt>
      <trkpt lat="45.05195" lon="5.90061">
        <ele>1642.55</ele>
        <time>2013-07-20T12:39:05Z</time>
      </trkpt>
      <trkpt lat="45.05194" lon="5.90046">
        <ele>1633.9</ele>
        <time>2013-07-20T12:39:22Z</time>
      </trkpt>
      <trkpt lat="45.05194" lon="5.90042">
        <ele>1630.53</ele>
        <time>2013-07-20T12:39:44Z</time>
      </trkpt>
      <trkpt lat="45.05194" lon="5.90043">
        <ele>1630.05</ele>
        <time>2013-07-20T12:39:58Z</time>
      </trkpt>
      <trkpt lat="45.05197" lon="5.90045">
        <ele>1631.98</ele>
        <time>2013-07-20T12:40:44Z</time>
      </trkpt>
      <trkpt lat="45.05199" lon="5.90042">
        <ele>1633.42</ele>
        <time>2013-07-20T12:41:17Z</time>
      </trkpt>
      <trkpt lat="45.05199" lon="5.9004">
        <ele>1633.9</ele>
        <time>2013-07-20T12:41:32Z</time>
      </trkpt>
      <trkpt lat="45.05197" lon="5.9003">
        <ele>1634.86</ele>
        <time>2013-07-20T12:41:51Z</time>
      </trkpt>
      <trkpt lat="45.05184" lon="5.90024">
        <ele>1634.86</ele>
        <time>2013-07-20T12:42:08Z</time>
      </trkpt>
      <trkpt lat="45.05189" lon="5.90033">
        <ele>1634.86</ele>
        <time>2013-07-20T12:42:18Z</time>
      </trkpt>
      <trkpt lat="45.05193" lon="5.90053">
        <ele>1634.38</ele>
        <time>2013-07-20T12:42:38Z</time>
      </trkpt>
      <trkpt lat="45.05201" lon="5.90069">
        <ele>1631.49</ele>
        <time>2013-07-20T12:43:00Z</time>
      </trkpt>
      <trkpt lat="45.05207" lon="5.90071">
        <ele>1631.49</ele>
        <time>2013-07-20T12:43:06Z</time>
      </trkpt>
      <trkpt lat="45.05209" lon="5.90072">
        <ele>1631.49</ele>
        <time>2013-07-20T12:43:20Z</time>
      </trkpt>
      <trkpt lat="45.05214" lon="5.90071">
        <ele>1635.34</ele>
        <time>2013-07-20T12:43:34Z</time>
      </trkpt>
      <trkpt lat="45.05224" lon="5.90073">
        <ele>1634.38</ele>
        <time>2013-07-20T12:43:57Z</time>
      </trkpt>
      <trkpt lat="45.05223" lon="5.90085">
        <ele>1618.52</ele>
        <time>2013-07-20T12:44:26Z</time>
      </trkpt>
      <trkpt lat="45.05222" lon="5.90073">
        <ele>1609.86</ele>
        <time>2013-07-20T12:45:26Z</time>
      </trkpt>
      <trkpt lat="45.05227" lon="5.9007">
        <ele>1592.08</ele>
        <time>2013-07-20T12:46:33Z</time>
      </trkpt>
      <trkpt lat="45.05185" lon="5.90072">
        <ele>1610.83</ele>
        <time>2013-07-20T12:47:15Z</time>
      </trkpt>
      <trkpt lat="45.05204" lon="5.90074">
        <ele>1628.13</ele>
        <time>2013-07-20T12:49:09Z</time>
      </trkpt>
      <trkpt lat="45.05216" lon="5.90062">
        <ele>1637.74</ele>
        <time>2013-07-20T12:49:27Z</time>
      </trkpt>
      <trkpt lat="45.0522" lon="5.90062">
        <ele>1639.67</ele>
        <time>2013-07-20T12:49:45Z</time>
      </trkpt>
      <trkpt lat="45.0522" lon="5.90064">
        <ele>1640.63</ele>
        <time>2013-07-20T12:49:57Z</time>
      </trkpt>
      <trkpt lat="45.05222" lon="5.90061">
        <ele>1641.11</ele>
        <time>2013-07-20T12:50:09Z</time>
      </trkpt>
      <trkpt lat="45.05225" lon="5.90057">
        <ele>1643.51</ele>
        <time>2013-07-20T12:50:21Z</time>
      </trkpt>
      <trkpt lat="45.05223" lon="5.90063">
        <ele>1641.59</ele>
        <time>2013-07-20T12:50:40Z</time>
      </trkpt>
      <trkpt lat="45.05226" lon="5.90057">
        <ele>1643.99</ele>
        <time>2013-07-20T12:51:15Z</time>
      </trkpt>
      <trkpt lat="45.05237" lon="5.90053">
        <ele>1646.4</ele>
        <time>2013-07-20T12:51:37Z</time>
      </trkpt>
      <trkpt lat="45.05253" lon="5.90023">
        <ele>1643.99</ele>
        <time>2013-07-20T12:52:00Z</time>
      </trkpt>
      <trkpt lat="45.05261" lon="5.90001">
        <ele>1647.36</ele>
        <time>2013-07-20T12:52:22Z</time>
      </trkpt>
      <trkpt lat="45.05266" lon="5.89995">
        <ele>1647.36</ele>
        <time>2013-07-20T12:52:33Z</time>
      </trkpt>
      <trkpt lat="45.05275" lon="5.89986">
        <ele>1649.28</ele>
        <time>2013-07-20T12:52:49Z</time>
      </trkpt>
      <trkpt lat="45.05284" lon="5.89976">
        <ele>1651.2</ele>
        <time>2013-07-20T12:53:08Z</time>
      </trkpt>
      <trkpt lat="45.05298" lon="5.89956">
        <ele>1649.28</ele>
        <time>2013-07-20T12:53:30Z</time>
      </trkpt>
      <trkpt lat="45.05308" lon="5.89928">
        <ele>1649.76</ele>
        <time>2013-07-20T12:53:55Z</time>
      </trkpt>
      <trkpt lat="45.05311" lon="5.89916">
        <ele>1650.72</ele>
        <time>2013-07-20T12:54:16Z</time>
      </trkpt>
      <trkpt lat="45.05315" lon="5.89916">
        <ele>1649.28</ele>
        <time>2013-07-20T12:54:29Z</time>
      </trkpt>
      <trkpt lat="45.05314" lon="5.89914">
        <ele>1649.76</ele>
        <time>2013-07-20T12:54:51Z</time>
      </trkpt>
      <trkpt lat="45.05313" lon="5.89899">
        <ele>1650.24</ele>
        <time>2013-07-20T12:55:00Z</time>
      </trkpt>
      <trkpt lat="45.05313" lon="5.89893">
        <ele>1649.76</ele>
        <time>2013-07-20T12:55:04Z</time>
      </trkpt>
      <trkpt lat="45.05313" lon="5.89871">
        <ele>1647.36</ele>
        <time>2013-07-20T12:55:23Z</time>
      </trkpt>
      <trkpt lat="45.05312" lon="5.89861">
        <ele>1645.91</ele>
        <time>2013-07-20T12:55:44Z</time>
      </trkpt>
      <trkpt lat="45.05313" lon="5.89862">
        <ele>1643.99</ele>
        <time>2013-07-20T13:02:36Z</time>
      </trkpt>
    </trkseg>
  </trk>
</gpx>